Time;durP1;ratioP1;P1;durP2;ratioP2;P2;SDS_P1;SDS_P2;PMS_P1;PMS_P2;Temp;Humidity;BMP_temperature;BMP_pressure;BME280_temperature;BME280_humidity;BME280_pressure;Samples;Min_cycle;Max_cycle;Signal;HPM_P1;HPM_P2
2023/07/17 00:01:36;;;;;;;10.98;2.80;;;17.30;99.90;;;;;;5007853;28;20860;-76
2023/07/17 00:04:02;;;;;;;10.18;2.88;;;17.10;99.90;;;;;;5011100;28;20445;-77
2023/07/17 00:06:28;;;;;;;10.10;3.40;;;17.10;99.90;;;;;;5014050;28;20548;-76
2023/07/17 00:08:54;;;;;;;11.13;3.25;;;16.90;99.90;;;;;;5014565;28;20395;-76
2023/07/17 00:11:19;;;;;;;12.27;3.30;;;17.20;99.90;;;;;;4982606;28;20408;-76
2023/07/17 00:13:45;;;;;;;11.73;3.47;;;17.00;99.90;;;;;;4994611;28;20419;-76
2023/07/17 00:16:11;;;;;;;14.13;3.25;;;17.20;99.90;;;;;;5014204;28;20533;-76
2023/07/17 00:18:37;;;;;;;12.10;3.47;;;17.20;99.90;;;;;;5009887;28;20924;-77
2023/07/17 00:21:03;;;;;;;9.30;3.03;;;17.00;99.90;;;;;;4996347;28;20427;-77
2023/07/17 00:23:28;;;;;;;10.50;3.33;;;17.30;99.90;;;;;;5014198;28;20406;-77
2023/07/17 00:25:54;;;;;;;9.23;3.10;;;17.00;99.90;;;;;;4996638;28;20427;-77
2023/07/17 00:28:20;;;;;;;11.90;3.35;;;17.10;99.90;;;;;;5012204;28;20434;-77
2023/07/17 00:30:45;;;;;;;11.68;3.13;;;16.80;99.90;;;;;;5013829;28;20426;-77
2023/07/17 00:33:11;;;;;;;8.13;2.50;;;16.80;99.90;;;;;;5012098;28;20423;-77
2023/07/17 00:35:37;;;;;;;8.00;2.30;;;16.40;99.90;;;;;;5013545;28;20423;-76
2023/07/17 00:38:04;;;;;;;6.43;2.10;;;16.20;99.90;;;;;;4996875;28;20462;-76
2023/07/17 00:40:30;;;;;;;6.20;2.00;;;16.20;99.90;;;;;;5014158;28;20427;-77
2023/07/17 00:43:00;;;;;;;10.77;2.85;;;15.80;99.90;;;;;;5014352;28;20457;-78
2023/07/17 00:45:29;;;;;;;9.03;3.00;;;15.90;99.90;;;;;;5014040;28;20593;-78
2023/07/17 00:47:56;;;;;;;7.25;2.70;;;15.80;99.90;;;;;;4994828;28;20486;-77
2023/07/17 00:50:21;;;;;;;6.50;2.67;;;15.70;99.90;;;;;;4991191;28;20415;-77
2023/07/17 00:52:47;;;;;;;7.72;3.00;;;15.60;99.90;;;;;;5014018;28;20468;-77
2023/07/17 00:55:13;;;;;;;9.25;2.97;;;15.80;99.90;;;;;;5012446;28;20477;-77
2023/07/17 00:57:41;;;;;;;8.83;2.87;;;15.60;99.90;;;;;;4998232;28;20515;-76
2023/07/17 01:00:08;;;;;;;5.05;2.25;;;15.70;99.90;;;;;;5011757;28;20441;-77
2023/07/17 01:02:37;;;;;;;6.57;2.67;;;15.80;99.90;;;;;;5008442;28;20428;-76
2023/07/17 01:05:03;;;;;;;9.27;3.08;;;15.60;99.90;;;;;;4995345;28;20427;-78
2023/07/17 01:07:29;;;;;;;5.60;2.42;;;15.50;99.90;;;;;;5013856;28;20453;-77
2023/07/17 01:09:54;;;;;;;6.05;2.63;;;15.50;99.90;;;;;;4993339;28;20435;-77
2023/07/17 01:12:20;;;;;;;7.25;2.70;;;15.40;99.90;;;;;;4994256;28;20424;-77
2023/07/17 01:14:47;;;;;;;5.68;2.55;;;15.60;99.90;;;;;;5007915;28;20503;-77
2023/07/17 01:17:13;;;;;;;6.63;2.60;;;15.60;99.90;;;;;;4978284;28;20916;-77
2023/07/17 01:19:38;;;;;;;7.87;2.70;;;15.50;99.90;;;;;;5016448;28;20447;-77
2023/07/17 01:22:21;;;;;;;8.30;2.70;;;15.40;99.90;;;;;;5016987;28;20403;-77
2023/07/17 01:24:47;;;;;;;9.48;3.13;;;15.60;99.90;;;;;;5005415;28;20426;-77
2023/07/17 01:27:13;;;;;;;8.40;2.80;;;15.40;99.90;;;;;;5016219;28;20716;-77
2023/07/17 01:29:38;;;;;;;8.48;3.30;;;15.50;99.90;;;;;;4994947;28;20433;-77
2023/07/17 01:32:04;;;;;;;8.38;2.92;;;15.40;99.90;;;;;;5016889;28;20902;-77
2023/07/17 01:34:30;;;;;;;8.48;3.03;;;15.40;99.90;;;;;;5015285;28;20518;-77
2023/07/17 01:36:56;;;;;;;8.35;3.13;;;15.40;99.90;;;;;;5015016;28;20869;-76
2023/07/17 01:39:24;;;;;;;9.30;3.50;;;15.40;99.90;;;;;;5016029;28;20484;-76
2023/07/17 01:41:50;;;;;;;10.05;3.53;;;15.50;99.90;;;;;;5015512;28;20454;-77
2023/07/17 01:44:15;;;;;;;10.13;3.25;;;15.20;99.90;;;;;;5031218;28;20548;-76
2023/07/17 01:46:41;;;;;;;12.57;3.50;;;15.20;99.90;;;;;;4996073;28;20430;-76
2023/07/17 01:49:07;;;;;;;9.83;3.37;;;15.20;99.90;;;;;;5015214;28;20425;-76
2023/07/17 01:51:33;;;;;;;9.23;3.33;;;15.20;99.90;;;;;;4999223;28;20447;-76
2023/07/17 01:53:59;;;;;;;8.38;3.30;;;15.20;99.90;;;;;;5000290;28;20442;-76
2023/07/17 01:56:25;;;;;;;9.67;3.33;;;15.30;99.90;;;;;;4996979;28;20501;-76
2023/07/17 01:58:51;;;;;;;10.90;3.60;;;15.20;99.90;;;;;;4981310;28;20427;-77
2023/07/17 02:01:16;;;;;;;9.75;3.70;;;15.10;99.90;;;;;;5014686;28;20765;-76
2023/07/17 02:03:42;;;;;;;9.60;3.87;;;15.10;99.90;;;;;;5009292;28;20484;-77
2023/07/17 02:06:08;;;;;;;7.95;3.17;;;15.10;99.90;;;;;;5015669;28;20435;-77
2023/07/17 02:08:33;;;;;;;8.85;3.25;;;15.20;99.90;;;;;;5016176;28;20902;-77
2023/07/17 02:10:59;;;;;;;7.63;3.10;;;15.10;99.90;;;;;;4982840;28;20415;-76
2023/07/17 02:13:25;;;;;;;8.00;3.13;;;15.00;99.90;;;;;;5015587;28;20419;-76
2023/07/17 02:15:51;;;;;;;11.50;3.30;;;15.00;99.90;;;;;;5016085;28;20430;-76
2023/07/17 02:18:17;;;;;;;9.73;3.33;;;15.10;99.90;;;;;;5015710;28;20473;-77
2023/07/17 02:20:43;;;;;;;8.57;3.43;;;15.00;99.90;;;;;;4981633;28;20458;-77
2023/07/17 02:23:09;;;;;;;11.00;3.23;;;15.00;99.90;;;;;;5015852;28;20813;-77
2023/07/17 02:25:34;;;;;;;9.30;3.97;;;14.90;99.90;;;;;;5016167;28;20423;-77
2023/07/17 02:28:00;;;;;;;9.47;3.50;;;14.90;99.90;;;;;;5015163;28;20430;-77
2023/07/17 02:30:26;;;;;;;10.23;3.80;;;14.90;99.90;;;;;;5013889;28;20423;-77
2023/07/17 02:32:51;;;;;;;9.60;3.60;;;15.00;99.90;;;;;;4995633;28;20426;-77
2023/07/17 02:35:17;;;;;;;10.38;4.25;;;15.00;99.90;;;;;;4984273;28;20512;-78
2023/07/17 02:37:43;;;;;;;10.93;4.30;;;14.70;99.90;;;;;;5013464;28;20505;-78
2023/07/17 02:40:12;;;;;;;11.67;4.10;;;14.80;99.90;;;;;;5014073;28;20907;-77
2023/07/17 02:42:39;;;;;;;11.03;4.30;;;15.00;99.90;;;;;;4999780;28;20887;-77
2023/07/17 02:45:07;;;;;;;9.07;4.13;;;14.80;99.90;;;;;;5015393;28;20459;-77
2023/07/17 02:47:32;;;;;;;10.00;4.32;;;14.80;99.90;;;;;;5010434;28;20912;-76
2023/07/17 02:49:58;;;;;;;11.30;4.40;;;15.00;99.90;;;;;;4972653;28;20471;-77
2023/07/17 02:52:24;;;;;;;12.50;4.43;;;15.10;99.90;;;;;;4996770;28;20481;-77
2023/07/17 02:54:49;;;;;;;11.98;3.95;;;14.90;99.90;;;;;;5014332;28;20511;-77
2023/07/17 02:57:16;;;;;;;9.90;4.20;;;15.00;99.90;;;;;;4982146;28;20427;-77
2023/07/17 02:59:42;;;;;;;12.00;3.97;;;15.10;99.90;;;;;;5030791;28;20462;-77
2023/07/17 03:02:08;;;;;;;10.55;3.83;;;15.10;99.90;;;;;;5014591;28;20410;-77
2023/07/17 03:04:34;;;;;;;9.77;3.70;;;15.00;99.90;;;;;;4999286;28;20403;-76
2023/07/17 03:07:00;;;;;;;11.40;4.23;;;15.10;99.90;;;;;;4997247;28;20435;-77
2023/07/17 03:09:29;;;;;;;11.00;4.00;;;15.00;99.90;;;;;;5013302;28;20419;-77
2023/07/17 03:11:55;;;;;;;8.50;3.63;;;15.30;99.90;;;;;;4996312;28;20435;-76
2023/07/17 03:14:21;;;;;;;10.02;3.83;;;14.90;99.90;;;;;;4998825;28;20407;-76
2023/07/17 03:16:46;;;;;;;8.10;3.43;;;15.30;99.90;;;;;;4998797;28;20403;-77
2023/07/17 03:19:12;;;;;;;9.23;3.50;;;15.20;99.90;;;;;;5013649;28;20482;-77
2023/07/17 03:21:38;;;;;;;10.07;3.58;;;15.30;99.90;;;;;;5007907;28;20419;-77
2023/07/17 03:24:05;;;;;;;9.30;3.60;;;15.10;99.90;;;;;;5012982;28;20415;-77
2023/07/17 03:26:31;;;;;;;8.60;3.37;;;15.10;99.90;;;;;;5014584;28;20994;-76
2023/07/17 03:28:57;;;;;;;11.57;3.50;;;15.00;99.90;;;;;;5013558;28;20434;-76
2023/07/17 03:31:22;;;;;;;9.80;3.58;;;15.00;99.90;;;;;;4994392;28;20429;-76
2023/07/17 03:33:48;;;;;;;7.57;3.43;;;14.70;99.90;;;;;;5008285;28;20423;-75
2023/07/17 03:36:14;;;;;;;9.17;3.33;;;14.60;99.90;;;;;;4998197;28;20406;-76
2023/07/17 03:38:40;;;;;;;10.27;3.80;;;;;;;;;;4981986;28;20434;-75
2023/07/17 03:41:06;;;;;;;11.55;4.38;;;14.80;99.90;;;;;;5009710;28;20849;-76
2023/07/17 03:43:32;;;;;;;9.43;3.67;;;14.70;99.90;;;;;;5013742;28;20525;-76
2023/07/17 03:45:57;;;;;;;9.63;3.57;;;14.60;99.90;;;;;;5014675;28;20403;-76
2023/07/17 03:48:23;;;;;;;9.45;3.67;;;14.60;99.90;;;;;;5012128;28;20436;-76
2023/07/17 03:50:49;;;;;;;11.93;3.70;;;14.70;99.90;;;;;;4996086;28;20466;-76
2023/07/17 03:53:14;;;;;;;9.75;3.47;;;14.70;99.90;;;;;;5013509;28;20449;-76
2023/07/17 03:55:40;;;;;;;9.27;3.47;;;14.70;99.90;;;;;;5013027;28;20422;-76
2023/07/17 03:58:08;;;;;;;9.30;3.17;;;14.50;99.90;;;;;;5014357;28;20496;-76
2023/07/17 04:00:37;;;;;;;10.60;3.58;;;14.50;99.90;;;;;;4997413;28;20431;-76
2023/07/17 04:03:02;;;;;;;11.90;3.58;;;14.60;99.90;;;;;;4995034;28;20423;-76
2023/07/17 04:05:28;;;;;;;9.45;3.70;;;14.70;99.90;;;;;;5014242;28;20763;-76
2023/07/17 04:07:54;;;;;;;9.73;3.60;;;14.50;99.90;;;;;;5013727;28;20410;-76
2023/07/17 04:10:19;;;;;;;10.93;3.53;;;14.50;99.90;;;;;;5013018;28;20507;-77
2023/07/17 04:12:45;;;;;;;11.57;3.42;;;14.50;99.90;;;;;;5012849;28;20517;-76
2023/07/17 04:15:11;;;;;;;8.57;3.35;;;14.70;99.90;;;;;;5012911;28;20423;-76
2023/07/17 04:17:37;;;;;;;9.45;3.47;;;14.70;99.90;;;;;;5012815;28;20441;-77
2023/07/17 04:20:03;;;;;;;8.63;3.10;;;14.70;99.90;;;;;;5012176;28;20431;-76
2023/07/17 04:22:29;;;;;;;11.70;3.50;;;14.70;99.90;;;;;;5013899;28;20407;-76
2023/07/17 04:24:54;;;;;;;13.73;3.60;;;14.80;99.90;;;;;;5013160;28;20427;-76
2023/07/17 04:27:20;;;;;;;9.48;3.70;;;14.70;99.90;;;;;;4997917;28;20411;-75
2023/07/17 04:29:46;;;;;;;12.90;3.80;;;14.90;99.90;;;;;;4996280;28;20423;-76
2023/07/17 04:32:11;;;;;;;12.77;3.90;;;14.80;99.90;;;;;;4997218;28;20435;-76
2023/07/17 04:34:37;;;;;;;10.50;3.75;;;14.70;99.90;;;;;;4977532;28;20421;-76
2023/07/17 04:37:03;;;;;;;11.75;4.00;;;14.90;99.90;;;;;;5003323;28;20461;-77
2023/07/17 04:39:28;;;;;;;13.95;3.70;;;14.90;99.90;;;;;;5013319;28;20422;-77
2023/07/17 04:41:56;;;;;;;13.10;3.60;;;15.00;99.90;;;;;;4996867;28;20415;-77
2023/07/17 04:44:22;;;;;;;14.38;4.03;;;15.10;99.90;;;;;;5012517;28;20431;-77
2023/07/17 04:46:47;;;;;;;10.43;3.55;;;14.90;99.90;;;;;;4996080;28;20434;-77
2023/07/17 04:49:13;;;;;;;9.82;3.50;;;14.80;99.90;;;;;;4997897;28;20894;-77
2023/07/17 04:51:39;;;;;;;11.53;3.40;;;;;;;;;;4996457;28;20795;-78
2023/07/17 04:54:05;;;;;;;11.10;3.95;;;15.00;99.90;;;;;;5009012;28;20992;-77
2023/07/17 04:56:31;;;;;;;12.53;3.83;;;15.10;99.90;;;;;;5001347;28;20525;-77
2023/07/17 04:58:57;;;;;;;13.37;3.83;;;15.20;99.90;;;;;;4990600;28;20467;-77
2023/07/17 05:01:23;;;;;;;11.00;3.53;;;15.30;99.90;;;;;;5000406;28;20483;-77
2023/07/17 05:03:48;;;;;;;12.52;4.00;;;15.00;99.90;;;;;;4987835;28;20422;-78
2023/07/17 05:06:14;;;;;;;9.15;3.83;;;15.40;99.90;;;;;;5018501;28;20759;-78
2023/07/17 05:08:40;;;;;;;11.43;3.90;;;15.30;99.90;;;;;;4984945;28;20408;-78
2023/07/17 05:11:05;;;;;;;11.10;3.80;;;15.40;99.90;;;;;;4996514;28;21004;-78
2023/07/17 05:13:31;;;;;;;10.85;3.90;;;15.40;99.90;;;;;;5018464;28;20442;-78
2023/07/17 05:15:57;;;;;;;10.90;3.53;;;15.60;99.90;;;;;;5002423;28;20469;-77
2023/07/17 05:18:23;;;;;;;12.25;3.33;;;15.50;99.90;;;;;;5015396;28;20514;-77
2023/07/17 05:20:50;;;;;;;9.60;3.73;;;15.20;99.90;;;;;;4978494;28;20428;-76
2023/07/17 05:23:16;;;;;;;16.63;4.00;;;15.50;99.90;;;;;;5031463;28;20480;-77
2023/07/17 05:25:54;;;;;;;12.85;4.60;;;15.50;99.90;;;;;;5017926;28;20429;-77
2023/07/17 05:28:20;;;;;;;14.15;3.83;;;15.50;99.90;;;;;;5016548;28;20771;-78
2023/07/17 05:30:49;;;;;;;12.20;4.50;;;15.60;99.90;;;;;;5017679;28;20415;-77
2023/07/17 05:33:15;;;;;;;12.83;4.20;;;15.70;99.90;;;;;;5012960;28;20417;-77
2023/07/17 05:35:41;;;;;;;9.30;3.67;;;15.70;99.90;;;;;;5015562;28;20509;-77
2023/07/17 05:38:06;;;;;;;11.60;3.75;;;16.00;99.90;;;;;;5014969;28;20462;-77
2023/07/17 05:40:35;;;;;;;9.80;3.35;;;15.80;99.90;;;;;;5001755;28;20783;-77
2023/07/17 05:43:00;;;;;;;12.68;3.80;;;16.00;99.90;;;;;;5015849;28;20423;-76
2023/07/17 05:45:26;;;;;;;13.80;3.70;;;16.10;99.90;;;;;;4997752;28;20777;-78
2023/07/17 05:47:52;;;;;;;12.27;4.10;;;16.20;99.90;;;;;;4987953;28;20427;-77
2023/07/17 05:50:19;;;;;;;10.32;4.05;;;16.30;99.90;;;;;;4999610;28;20501;-75
2023/07/17 05:52:44;;;;;;;10.60;3.97;;;16.00;99.90;;;;;;5012185;28;20430;-78
2023/07/17 05:55:11;;;;;;;13.60;4.23;;;16.30;99.90;;;;;;4989779;28;20405;-78
2023/07/17 05:57:36;;;;;;;10.65;4.30;;;16.30;99.90;;;;;;5007563;28;20446;-78
2023/07/17 06:00:03;;;;;;;8.70;4.00;;;16.20;99.90;;;;;;4997588;28;20513;-77
2023/07/17 06:02:29;;;;;;;12.60;4.40;;;16.40;99.90;;;;;;4984432;28;20411;-77
2023/07/17 06:04:55;;;;;;;12.23;4.40;;;16.30;99.90;;;;;;5000843;28;20910;-77
2023/07/17 06:07:21;;;;;;;13.20;4.60;;;16.30;99.90;;;;;;4997581;28;20420;-76
2023/07/17 06:09:46;;;;;;;15.48;5.05;;;16.30;99.90;;;;;;4994410;28;20427;-77
2023/07/17 06:12:12;;;;;;;12.45;4.70;;;16.70;99.90;;;;;;5010485;28;20459;-79
2023/07/17 06:14:38;;;;;;;13.00;4.93;;;16.50;99.90;;;;;;4991042;28;20426;-79
2023/07/17 06:17:04;;;;;;;14.50;4.67;;;16.70;99.90;;;;;;5016328;28;20458;-78
2023/07/17 06:19:29;;;;;;;15.00;4.43;;;16.70;99.90;;;;;;5011038;28;20433;-79
2023/07/17 06:21:55;;;;;;;11.63;4.53;;;16.60;99.90;;;;;;5008442;28;20517;-78
2023/07/17 06:24:21;;;;;;;10.13;4.95;;;16.40;99.90;;;;;;5017037;28;20411;-79
2023/07/17 06:26:46;;;;;;;11.68;4.38;;;16.60;99.90;;;;;;5013701;28;20420;-78
2023/07/17 06:29:12;;;;;;;11.80;4.83;;;16.40;99.90;;;;;;5008808;28;20906;-78
2023/07/17 06:31:38;;;;;;;14.30;5.13;;;16.60;99.90;;;;;;5002122;28;20419;-76
2023/07/17 06:34:04;;;;;;;14.82;4.88;;;16.60;99.90;;;;;;4992357;28;20433;-78
2023/07/17 06:36:32;;;;;;;14.35;5.00;;;16.60;99.90;;;;;;4991113;28;20428;-78
2023/07/17 06:38:58;;;;;;;12.23;4.80;;;16.70;99.90;;;;;;5004108;28;20427;-78
2023/07/17 06:41:24;;;;;;;13.00;4.50;;;16.90;99.90;;;;;;5015399;28;20929;-79
2023/07/17 06:43:49;;;;;;;12.50;4.80;;;17.20;99.90;;;;;;5016681;28;20408;-78
2023/07/17 06:46:17;;;;;;;11.80;4.88;;;17.60;99.90;;;;;;5016690;28;20430;-79
2023/07/17 06:48:42;;;;;;;13.80;4.80;;;17.50;99.90;;;;;;5008224;28;20408;-79
2023/07/17 06:51:08;;;;;;;11.07;4.90;;;18.00;99.90;;;;;;5009709;28;20881;-79
2023/07/17 06:53:34;;;;;;;13.30;5.10;;;18.10;99.90;;;;;;4966081;28;20413;-77
2023/07/17 06:56:00;;;;;;;11.55;4.72;;;18.00;99.90;;;;;;5016006;28;20411;-79
2023/07/17 06:58:27;;;;;;;13.60;4.65;;;18.40;99.90;;;;;;5016357;28;20546;-79
2023/07/17 07:00:57;;;;;;;11.38;5.00;;;18.40;99.90;;;;;;5008839;28;20913;-78
2023/07/17 07:03:26;;;;;;;13.82;4.93;;;18.20;99.90;;;;;;5010991;28;20783;-79
2023/07/17 07:06:00;;;;;;;14.02;4.95;;;18.30;99.90;;;;;;5015000;28;20426;-78
2023/07/17 07:08:30;;;;;;;14.03;5.27;;;18.10;99.90;;;;;;5001201;28;20428;-81
2023/07/17 07:10:57;;;;;;;12.77;4.90;;;19.10;99.90;;;;;;5015540;28;20411;-81
2023/07/17 07:13:24;;;;;;;11.10;5.50;;;18.40;99.90;;;;;;5014280;28;20419;-82
2023/07/17 07:15:53;;;;;;;11.30;4.80;;;18.00;99.90;;;;;;5015619;28;20421;-81
2023/07/17 07:18:19;;;;;;;10.77;4.28;;;18.00;99.90;;;;;;5000291;28;21088;-79
2023/07/17 07:20:47;;;;;;;18.27;4.35;;;17.60;99.90;;;;;;5003354;28;20431;-82
2023/07/17 07:23:14;;;;;;;12.93;4.63;;;17.30;99.90;;;;;;4994674;28;20919;-80
2023/07/17 07:25:40;;;;;;;14.93;4.80;;;16.60;99.90;;;;;;5016698;28;20916;-79
2023/07/17 07:28:05;;;;;;;15.20;6.00;;;16.40;99.90;;;;;;5004997;28;20439;-78
2023/07/17 07:30:31;;;;;;;12.73;5.57;;;16.10;99.90;;;;;;4965061;28;20431;-78
2023/07/17 07:32:57;;;;;;;19.33;6.30;;;16.20;99.90;;;;;;5022338;28;20413;-76
2023/07/17 07:35:23;;;;;;;15.38;5.93;;;16.10;99.90;;;;;;5028369;28;20442;-76
2023/07/17 07:37:49;;;;;;;16.27;6.15;;;16.00;99.90;;;;;;5013486;28;20434;-76
2023/07/17 07:40:15;;;;;;;16.17;5.97;;;16.10;99.90;;;;;;4996530;28;20485;-76
2023/07/17 07:42:42;;;;;;;13.82;5.80;;;16.20;99.90;;;;;;5025298;28;20494;-76
2023/07/17 07:45:08;;;;;;;12.68;5.55;;;16.40;99.90;;;;;;5014489;28;20404;-77
2023/07/17 07:47:34;;;;;;;13.85;5.60;;;16.50;99.90;;;;;;5023590;28;20880;-76
2023/07/17 07:50:00;;;;;;;10.97;4.60;;;16.40;99.90;;;;;;5006299;28;20431;-75
2023/07/17 07:52:26;;;;;;;11.85;4.80;;;16.60;99.90;;;;;;5012620;28;20423;-76
2023/07/17 07:54:52;;;;;;;14.55;5.20;;;16.50;99.90;;;;;;5012382;28;20434;-77
2023/07/17 07:57:18;;;;;;;14.90;5.50;;;16.60;99.90;;;;;;5009014;28;20497;-75
2023/07/17 07:59:43;;;;;;;13.27;5.00;;;16.90;99.90;;;;;;5006780;28;20430;-76
2023/07/17 08:02:10;;;;;;;13.90;4.90;;;17.10;99.90;;;;;;5009807;28;20923;-75
2023/07/17 08:04:36;;;;;;;15.57;6.22;;;17.10;99.90;;;;;;4985282;28;20419;-76
2023/07/17 08:07:02;;;;;;;13.20;4.93;;;17.40;99.90;;;;;;5014429;28;20406;-76
2023/07/17 08:09:28;;;;;;;10.43;4.25;;;17.40;99.90;;;;;;5014179;28;20756;-75
2023/07/17 08:11:54;;;;;;;10.68;4.18;;;17.90;99.90;;;;;;5010434;28;20438;-76
2023/07/17 08:14:21;;;;;;;9.80;4.18;;;17.90;99.90;;;;;;4993931;28;20924;-75
2023/07/17 08:16:47;;;;;;;12.43;4.32;;;18.20;99.90;;;;;;4995393;28;20501;-75
2023/07/17 08:19:13;;;;;;;10.95;4.40;;;18.20;99.90;;;;;;4998643;28;20417;-78
2023/07/17 08:21:39;;;;;;;10.60;4.00;;;18.20;99.90;;;;;;4997408;28;20510;-77
2023/07/17 08:24:05;;;;;;;8.77;4.00;;;18.20;99.90;;;;;;5011296;28;20423;-78
2023/07/17 08:26:31;;;;;;;9.07;3.80;;;18.20;99.90;;;;;;5014326;28;20456;-76
2023/07/17 08:28:58;;;;;;;10.27;3.77;;;18.50;99.90;;;;;;5012957;28;20887;-76
2023/07/17 08:31:24;;;;;;;10.38;3.67;;;18.30;99.90;;;;;;5010683;28;20944;-76
2023/07/17 08:33:50;;;;;;;9.27;4.10;;;19.00;99.90;;;;;;4996626;28;20423;-77
2023/07/17 08:36:16;;;;;;;9.80;3.85;;;18.80;99.90;;;;;;5013114;28;20422;-78
2023/07/17 08:38:41;;;;;;;9.53;3.63;;;18.80;99.90;;;;;;5012789;28;20488;-77
2023/07/17 08:41:08;;;;;;;6.93;3.50;;;18.90;99.90;;;;;;4997973;28;20399;-79
2023/07/17 08:43:36;;;;;;;9.27;3.80;;;19.10;99.90;;;;;;4996167;28;20716;-79
2023/07/17 08:46:02;;;;;;;9.25;3.50;;;19.30;99.90;;;;;;5010779;28;20423;-79
2023/07/17 08:48:29;;;;;;;8.80;3.40;;;19.30;99.90;;;;;;5003609;28;20427;-77
2023/07/17 08:50:57;;;;;;;7.53;3.00;;;19.20;99.90;;;;;;5027787;28;20456;-78
2023/07/17 08:53:26;;;;;;;9.80;3.60;;;19.40;99.90;;;;;;5006681;28;20434;-79
2023/07/17 08:55:55;;;;;;;7.85;3.33;;;19.50;99.90;;;;;;5002204;28;20431;-80
2023/07/17 08:58:23;;;;;;;7.93;2.80;;;19.60;99.90;;;;;;5012650;28;20412;-79
2023/07/17 09:00:50;;;;;;;7.57;2.95;;;19.50;99.90;;;;;;5001181;28;20427;-79
2023/07/17 09:03:17;;;;;;;7.43;3.10;;;20.10;99.90;;;;;;5010407;28;20933;-79
2023/07/17 09:05:43;;;;;;;6.60;2.90;;;19.80;99.90;;;;;;4985858;28;20820;-79
2023/07/17 09:08:11;;;;;;;7.95;3.17;;;19.80;99.90;;;;;;4994994;28;20505;-76
2023/07/17 09:10:37;;;;;;;7.00;2.47;;;19.70;99.90;;;;;;5011833;28;20508;-80
2023/07/17 09:13:04;;;;;;;5.75;2.45;;;20.00;99.90;;;;;;5013810;28;20447;-78
2023/07/17 09:15:31;;;;;;;8.43;2.80;;;20.10;99.90;;;;;;4996608;28;20434;-78
2023/07/17 09:17:58;;;;;;;8.52;2.80;;;20.10;99.90;;;;;;5008757;28;20514;-77
2023/07/17 09:20:24;;;;;;;9.35;3.60;;;20.00;99.90;;;;;;5011710;28;20430;-77
2023/07/17 09:22:54;;;;;;;8.27;3.70;;;20.20;99.90;;;;;;5010643;28;20454;-79
2023/07/17 09:25:19;;;;;;;8.77;3.10;;;20.20;99.90;;;;;;5012149;28;20429;-77
2023/07/17 09:27:50;;;;;;;7.63;3.20;;;20.70;99.90;;;;;;5010970;28;20434;-77
2023/07/17 09:30:26;;;;;;;8.05;3.03;;;20.70;99.90;;;;;;5008160;28;20497;-77
2023/07/17 09:32:52;;;;;;;6.28;2.65;;;20.60;99.90;;;;;;4988322;28;20463;-76
2023/07/17 09:35:23;;;;;;;8.57;2.90;;;20.20;99.90;;;;;;5004934;28;20432;-78
2023/07/17 09:37:50;;;;;;;8.05;3.10;;;20.30;99.90;;;;;;4992322;28;20836;-77
2023/07/17 09:40:18;;;;;;;8.02;2.58;;;20.10;99.90;;;;;;4994652;28;20426;-79
2023/07/17 09:42:45;;;;;;;7.18;2.75;;;20.30;99.90;;;;;;5007703;28;20485;-76
2023/07/17 09:45:11;;;;;;;7.93;2.80;;;20.00;99.90;;;;;;4993675;28;20428;-77
2023/07/17 09:47:38;;;;;;;8.95;3.00;;;20.30;99.90;;;;;;5000908;28;20426;-78
2023/07/17 09:50:05;;;;;;;6.95;2.60;;;20.20;99.90;;;;;;4976419;28;20432;-78
2023/07/17 09:52:31;;;;;;;10.23;3.00;;;19.90;99.90;;;;;;5011427;28;20432;-76
2023/07/17 09:55:00;;;;;;;6.85;2.80;;;19.90;99.90;;;;;;5010696;28;20460;-77
2023/07/17 09:57:26;;;;;;;6.13;2.85;;;20.20;99.90;;;;;;5007204;28;20440;-76
2023/07/17 09:59:58;;;;;;;6.30;3.00;;;20.20;99.90;;;;;;5006481;28;20425;-78
2023/07/17 10:02:28;;;;;;;7.27;3.17;;;20.30;99.90;;;;;;4995531;28;20793;-78
2023/07/17 10:04:57;;;;;;;8.75;3.70;;;20.20;99.90;;;;;;5003082;28;20527;-76
2023/07/17 10:07:24;;;;;;;8.05;3.70;;;20.30;99.90;;;;;;5007167;28;20520;-77
2023/07/17 10:09:51;;;;;;;8.43;4.20;;;20.20;99.90;;;;;;5007796;28;20438;-78
2023/07/17 10:12:17;;;;;;;7.43;3.37;;;20.50;99.90;;;;;;5001308;28;20512;-76
2023/07/17 10:14:45;;;;;;;8.88;3.30;;;20.70;99.90;;;;;;4981658;28;20423;-76
2023/07/17 10:17:35;;;;;;;6.68;3.08;;;21.20;99.90;;;;;;5007836;28;20586;-77
2023/07/17 10:20:06;;;;;;;6.70;2.63;;;21.50;99.90;;;;;;4985863;28;20781;-77
2023/07/17 10:22:35;;;;;;;6.10;2.85;;;21.50;99.90;;;;;;5009894;28;20421;-77
2023/07/17 10:25:19;;;;;;;8.18;2.55;;;21.90;99.90;;;;;;5006123;28;20436;-79
2023/07/17 10:27:53;;;;;;;7.27;2.50;;;22.10;99.90;;;;;;5013369;28;20425;-79
2023/07/17 10:30:34;;;;;;;5.68;2.65;;;22.00;99.90;;;;;;5009748;28;20979;-78
2023/07/17 10:33:19;;;;;;;4.82;2.40;;;22.00;99.90;;;;;;5002490;28;20428;-78
2023/07/17 10:35:49;;;;;;;9.02;2.50;;;22.20;99.90;;;;;;5012366;28;20435;-77
2023/07/17 10:38:24;;;;;;;6.95;2.50;;;22.30;99.90;;;;;;4992500;28;20425;-78
2023/07/17 10:41:04;;;;;;;7.27;2.80;;;22.50;99.90;;;;;;5011285;28;20429;-78
2023/07/17 10:43:31;;;;;;;7.22;2.90;;;22.10;99.90;;;;;;4999427;28;20436;-78
2023/07/17 10:45:58;;;;;;;6.75;3.33;;;22.10;99.90;;;;;;4970317;28;20427;-77
2023/07/17 10:48:25;;;;;;;8.25;3.20;;;22.20;99.90;;;;;;5010397;28;20482;-77
2023/07/17 10:50:53;;;;;;;6.57;3.38;;;22.40;99.90;;;;;;5000996;28;20428;-76
2023/07/17 10:53:20;;;;;;;6.60;3.00;;;22.40;99.90;;;;;;5006150;28;20432;-77
2023/07/17 10:55:49;;;;;;;7.32;3.05;;;22.40;99.90;;;;;;5007927;28;20421;-78
2023/07/17 10:58:17;;;;;;;6.28;2.70;;;22.20;99.90;;;;;;4975500;28;20495;-78
2023/07/17 11:00:43;;;;;;;9.95;2.85;;;22.30;99.90;;;;;;5006248;28;20428;-77
2023/07/17 11:03:12;;;;;;;6.57;2.90;;;23.40;99.90;;;;;;4990199;28;20471;-78
2023/07/17 11:05:40;;;;;;;6.07;2.88;;;22.00;99.90;;;;;;5010261;28;20480;-78
2023/07/17 11:08:07;;;;;;;6.18;2.60;;;21.90;99.90;;;;;;4980073;28;20922;-77
2023/07/17 11:10:38;;;;;;;8.43;2.65;;;22.00;99.90;;;;;;4992637;28;20545;-77
2023/07/17 11:13:04;;;;;;;7.43;2.80;;;22.10;99.90;;;;;;5002792;28;20486;-78
2023/07/17 11:15:32;;;;;;;8.63;3.17;;;22.30;99.90;;;;;;5007460;28;20432;-77
2023/07/17 11:18:00;;;;;;;7.30;3.03;;;22.20;99.90;;;;;;4994450;28;20436;-77
2023/07/17 11:20:26;;;;;;;7.82;3.00;;;21.80;99.90;;;;;;5010460;28;20789;-77
2023/07/17 11:22:52;;;;;;;8.18;2.88;;;22.00;99.90;;;;;;5005042;28;20419;-76
2023/07/17 11:25:19;;;;;;;6.75;3.03;;;21.90;99.90;;;;;;4979785;28;20421;-78
2023/07/17 11:27:46;;;;;;;6.32;2.72;;;21.80;99.90;;;;;;5010615;28;20750;-78
2023/07/17 11:30:19;;;;;;;6.22;2.40;;;21.40;99.90;;;;;;5009091;28;20441;-77
2023/07/17 11:32:56;;;;;;;8.33;2.80;;;21.20;99.90;;;;;;4993876;28;20536;-77
2023/07/17 11:35:22;;;;;;;7.80;2.90;;;21.50;99.90;;;;;;5007890;28;20461;-76
2023/07/17 11:37:47;;;;;;;6.03;2.70;;;21.50;99.90;;;;;;5006143;28;20466;-77
2023/07/17 11:40:13;;;;;;;6.83;2.40;;;21.70;99.90;;;;;;4998761;28;20425;-78
2023/07/17 11:42:56;;;;;;;5.43;2.10;;;21.80;99.90;;;;;;4990340;28;20468;-77
2023/07/17 11:45:26;;;;;;;5.85;2.22;;;22.20;99.90;;;;;;5003635;28;20418;-78
2023/07/17 11:47:53;;;;;;;6.45;2.20;;;22.40;99.90;;;;;;5007419;28;20421;-77
2023/07/17 11:50:23;;;;;;;5.18;2.10;;;22.80;99.90;;;;;;4976122;28;20563;-78
2023/07/17 11:53:03;;;;;;;4.53;1.73;;;22.80;99.90;;;;;;5009708;28;20502;-78
2023/07/17 11:55:34;;;;;;;3.60;1.80;;;23.00;99.90;;;;;;4994234;28;21065;-78
2023/07/17 11:57:59;;;;;;;4.53;1.80;;;22.90;99.40;;;;;;5004619;28;20439;-79
2023/07/17 12:00:25;;;;;;;5.07;2.10;;;22.80;99.40;;;;;;5008397;28;20945;-79
2023/07/17 12:02:51;;;;;;;4.70;2.10;;;23.00;99.90;;;;;;5001296;28;20463;-79
2023/07/17 12:05:17;;;;;;;6.28;2.17;;;23.10;99.40;;;;;;4973912;28;20437;-78
2023/07/17 12:07:43;;;;;;;4.10;2.20;;;23.30;99.90;;;;;;4985334;28;20440;-77
2023/07/17 12:10:09;;;;;;;5.97;2.50;;;23.10;99.90;;;;;;5000935;28;20429;-80
2023/07/17 12:12:36;;;;;;;6.77;2.43;;;23.00;99.30;;;;;;5007193;28;20429;-79
2023/07/17 12:15:02;;;;;;;6.18;2.67;;;23.30;99.70;;;;;;5008656;28;20428;-80
2023/07/17 12:17:27;;;;;;;4.35;2.60;;;23.20;99.70;;;;;;5008386;28;20452;-78
2023/07/17 12:19:54;;;;;;;5.53;2.30;;;23.50;99.90;;;;;;5009141;28;20429;-79
2023/07/17 12:22:21;;;;;;;6.10;2.38;;;23.50;99.90;;;;;;5004809;28;20466;-80
2023/07/17 12:24:47;;;;;;;5.57;2.50;;;23.60;98.80;;;;;;5009750;28;20443;-79
2023/07/17 12:27:13;;;;;;;6.60;2.28;;;23.60;99.50;;;;;;4993135;28;20432;-80
2023/07/17 12:29:39;;;;;;;8.35;2.67;;;23.60;99.90;;;;;;5003464;28;20435;-79
2023/07/17 12:32:04;;;;;;;5.37;2.40;;;23.20;99.90;;;;;;5005730;28;20535;-77
2023/07/17 12:34:30;;;;;;;5.32;2.30;;;23.10;99.60;;;;;;4993323;28;20490;-79
2023/07/17 12:36:56;;;;;;;5.47;2.20;;;22.90;99.80;;;;;;5008188;28;20854;-79
2023/07/17 12:39:25;;;;;;;3.73;1.93;;;22.90;99.00;;;;;;5008413;28;20420;-79
2023/07/17 12:41:51;;;;;;;5.37;1.90;;;23.10;98.70;;;;;;4991314;28;20436;-80